sensor_id;sensor_type;location;lat;lon;timestamp;P1;durP1;ratioP1;P2;durP2;ratioP2
15990;SDS011;8100;50.994;4.538;2022-07-06T00:01:15;1.48;;;1.13;;
15990;SDS011;8100;50.994;4.538;2022-07-06T00:04:03;1.25;;;1.02;;
15990;SDS011;8100;50.994;4.538;2022-07-06T00:06:52;1.67;;;1.23;;
15990;SDS011;8100;50.994;4.538;2022-07-06T00:09:39;2.53;;;1.40;;
15990;SDS011;8100;50.994;4.538;2022-07-06T00:12:26;2.38;;;1.27;;
15990;SDS011;8100;50.994;4.538;2022-07-06T00:15:13;2.67;;;1.10;;
15990;SDS011;8100;50.994;4.538;2022-07-06T00:18:00;2.13;;;1.10;;
15990;SDS011;8100;50.994;4.538;2022-07-06T00:20:48;1.73;;;1.10;;
15990;SDS011;8100;50.994;4.538;2022-07-06T00:23:36;2.25;;;1.00;;
15990;SDS011;8100;50.994;4.538;2022-07-06T00:26:23;4.75;;;1.23;;
15990;SDS011;8100;50.994;4.538;2022-07-06T00:29:11;4.68;;;1.08;;
15990;SDS011;8100;50.994;4.538;2022-07-06T00:31:58;1.30;;;0.95;;
15990;SDS011;8100;50.994;4.538;2022-07-06T00:34:45;2.53;;;1.10;;
15990;SDS011;8100;50.994;4.538;2022-07-06T00:37:32;1.75;;;1.10;;
15990;SDS011;8100;50.994;4.538;2022-07-06T00:40:21;2.53;;;1.10;;
15990;SDS011;8100;50.994;4.538;2022-07-06T00:43:08;1.98;;;1.05;;
15990;SDS011;8100;50.994;4.538;2022-07-06T00:45:56;1.50;;;0.90;;
15990;SDS011;8100;50.994;4.538;2022-07-06T00:48:43;1.10;;;0.95;;
15990;SDS011;8100;50.994;4.538;2022-07-06T00:51:32;2.08;;;0.90;;
15990;SDS011;8100;50.994;4.538;2022-07-06T00:54:22;0.82;;;0.82;;
15990;SDS011;8100;50.994;4.538;2022-07-06T00:57:11;3.72;;;1.30;;
15990;SDS011;8100;50.994;4.538;2022-07-06T00:59:58;4.05;;;1.20;;
15990;SDS011;8100;50.994;4.538;2022-07-06T01:02:48;1.10;;;1.00;;
15990;SDS011;8100;50.994;4.538;2022-07-06T01:05:35;3.65;;;1.35;;
15990;SDS011;8100;50.994;4.538;2022-07-06T01:08:23;1.35;;;1.20;;
15990;SDS011;8100;50.994;4.538;2022-07-06T01:11:10;2.85;;;1.30;;
15990;SDS011;8100;50.994;4.538;2022-07-06T01:14:00;1.25;;;1.00;;
15990;SDS011;8100;50.994;4.538;2022-07-06T01:16:48;1.52;;;1.20;;
15990;SDS011;8100;50.994;4.538;2022-07-06T01:19:35;2.17;;;1.05;;
15990;SDS011;8100;50.994;4.538;2022-07-06T01:22:24;1.50;;;1.23;;
15990;SDS011;8100;50.994;4.538;2022-07-06T01:25:11;3.03;;;1.58;;
15990;SDS011;8100;50.994;4.538;2022-07-06T01:27:59;2.03;;;1.35;;
15990;SDS011;8100;50.994;4.538;2022-07-06T01:30:46;4.00;;;1.50;;
15990;SDS011;8100;50.994;4.538;2022-07-06T01:33:34;2.22;;;1.30;;
15990;SDS011;8100;50.994;4.538;2022-07-06T01:36:21;1.85;;;1.45;;
15990;SDS011;8100;50.994;4.538;2022-07-06T01:39:11;2.13;;;1.50;;
15990;SDS011;8100;50.994;4.538;2022-07-06T01:41:58;5.28;;;1.42;;
15990;SDS011;8100;50.994;4.538;2022-07-06T01:44:45;2.22;;;1.40;;
15990;SDS011;8100;50.994;4.538;2022-07-06T01:47:33;2.72;;;1.40;;
15990;SDS011;8100;50.994;4.538;2022-07-06T01:50:20;1.67;;;1.33;;
15990;SDS011;8100;50.994;4.538;2022-07-06T01:53:07;2.67;;;1.50;;
15990;SDS011;8100;50.994;4.538;2022-07-06T01:55:56;2.15;;;1.50;;
15990;SDS011;8100;50.994;4.538;2022-07-06T01:58:43;2.17;;;1.58;;
15990;SDS011;8100;50.994;4.538;2022-07-06T02:01:30;1.85;;;1.50;;
15990;SDS011;8100;50.994;4.538;2022-07-06T02:04:17;4.25;;;1.85;;
15990;SDS011;8100;50.994;4.538;2022-07-06T02:07:05;1.58;;;1.40;;
15990;SDS011;8100;50.994;4.538;2022-07-06T02:09:52;2.63;;;1.58;;
15990;SDS011;8100;50.994;4.538;2022-07-06T02:12:40;2.80;;;1.40;;
15990;SDS011;8100;50.994;4.538;2022-07-06T02:15:28;1.52;;;1.05;;
15990;SDS011;8100;50.994;4.538;2022-07-06T02:18:15;2.13;;;1.40;;
15990;SDS011;8100;50.994;4.538;2022-07-06T02:21:03;2.72;;;1.30;;
15990;SDS011;8100;50.994;4.538;2022-07-06T02:23:50;1.85;;;1.20;;
15990;SDS011;8100;50.994;4.538;2022-07-06T02:26:37;2.13;;;1.23;;
15990;SDS011;8100;50.994;4.538;2022-07-06T02:29:26;1.63;;;1.10;;
15990;SDS011;8100;50.994;4.538;2022-07-06T02:32:13;2.17;;;1.10;;
15990;SDS011;8100;50.994;4.538;2022-07-06T02:35:00;4.47;;;1.50;;
15990;SDS011;8100;50.994;4.538;2022-07-06T02:37:48;1.58;;;1.10;;
15990;SDS011;8100;50.994;4.538;2022-07-06T02:40:35;3.40;;;1.10;;
15990;SDS011;8100;50.994;4.538;2022-07-06T02:43:23;2.08;;;1.20;;
15990;SDS011;8100;50.994;4.538;2022-07-06T02:46:12;1.92;;;1.30;;
15990;SDS011;8100;50.994;4.538;2022-07-06T02:48:59;2.92;;;1.30;;
15990;SDS011;8100;50.994;4.538;2022-07-06T02:51:47;2.47;;;1.50;;
15990;SDS011;8100;50.994;4.538;2022-07-06T02:54:34;2.25;;;1.17;;
15990;SDS011;8100;50.994;4.538;2022-07-06T02:57:21;2.85;;;1.30;;
15990;SDS011;8100;50.994;4.538;2022-07-06T03:00:08;1.85;;;1.10;;
15990;SDS011;8100;50.994;4.538;2022-07-06T03:02:57;2.75;;;1.33;;
15990;SDS011;8100;50.994;4.538;2022-07-06T03:05:45;1.65;;;1.40;;
15990;SDS011;8100;50.994;4.538;2022-07-06T03:08:34;2.20;;;1.20;;
15990;SDS011;8100;50.994;4.538;2022-07-06T03:11:21;2.20;;;1.17;;
15990;SDS011;8100;50.994;4.538;2022-07-06T03:14:08;2.53;;;1.30;;
15990;SDS011;8100;50.994;4.538;2022-07-06T03:16:55;2.08;;;1.40;;
15990;SDS011;8100;50.994;4.538;2022-07-06T03:19:44;1.17;;;1.08;;
15990;SDS011;8100;50.994;4.538;2022-07-06T03:22:31;2.38;;;1.42;;
15990;SDS011;8100;50.994;4.538;2022-07-06T03:25:19;1.75;;;1.10;;
15990;SDS011;8100;50.994;4.538;2022-07-06T03:28:06;3.45;;;1.30;;
15990;SDS011;8100;50.994;4.538;2022-07-06T03:30:53;2.25;;;1.30;;
15990;SDS011;8100;50.994;4.538;2022-07-06T03:33:41;2.03;;;1.42;;
15990;SDS011;8100;50.994;4.538;2022-07-06T03:36:30;1.35;;;1.08;;
15990;SDS011;8100;50.994;4.538;2022-07-06T03:39:17;2.00;;;1.42;;
15990;SDS011;8100;50.994;4.538;2022-07-06T03:42:04;1.90;;;1.42;;
15990;SDS011;8100;50.994;4.538;2022-07-06T03:44:51;3.25;;;1.42;;
15990;SDS011;8100;50.994;4.538;2022-07-06T03:47:39;1.85;;;1.38;;
15990;SDS011;8100;50.994;4.538;2022-07-06T03:50:26;2.28;;;1.38;;
15990;SDS011;8100;50.994;4.538;2022-07-06T03:53:14;3.13;;;1.42;;
15990;SDS011;8100;50.994;4.538;2022-07-06T03:56:02;2.08;;;1.40;;
15990;SDS011;8100;50.994;4.538;2022-07-06T03:59:07;1.90;;;1.40;;
15990;SDS011;8100;50.994;4.538;2022-07-06T04:01:54;2.40;;;1.40;;
15990;SDS011;8100;50.994;4.538;2022-07-06T04:04:41;1.85;;;1.20;;
15990;SDS011;8100;50.994;4.538;2022-07-06T04:07:29;3.30;;;1.30;;
15990;SDS011;8100;50.994;4.538;2022-07-06T04:10:17;2.50;;;1.63;;
15990;SDS011;8100;50.994;4.538;2022-07-06T04:13:05;3.22;;;1.20;;
15990;SDS011;8100;50.994;4.538;2022-07-06T04:15:52;1.42;;;1.08;;
15990;SDS011;8100;50.994;4.538;2022-07-06T04:18:39;2.28;;;1.52;;
15990;SDS011;8100;50.994;4.538;2022-07-06T04:21:26;2.00;;;1.20;;
15990;SDS011;8100;50.994;4.538;2022-07-06T04:24:14;2.20;;;1.38;;
15990;SDS011;8100;50.994;4.538;2022-07-06T04:27:03;3.00;;;1.08;;
15990;SDS011;8100;50.994;4.538;2022-07-06T04:29:50;1.33;;;1.05;;
15990;SDS011;8100;50.994;4.538;2022-07-06T04:32:39;2.97;;;1.35;;
15990;SDS011;8100;50.994;4.538;2022-07-06T04:35:26;3.30;;;1.65;;
15990;SDS011;8100;50.994;4.538;2022-07-06T04:38:14;3.40;;;1.63;;
15990;SDS011;8100;50.994;4.538;2022-07-06T04:41:01;4.53;;;1.77;;
15990;SDS011;8100;50.994;4.538;2022-07-06T04:43:50;2.25;;;1.63;;
15990;SDS011;8100;50.994;4.538;2022-07-06T04:46:37;2.20;;;1.40;;
15990;SDS011;8100;50.994;4.538;2022-07-06T04:49:24;3.10;;;1.90;;
15990;SDS011;8100;50.994;4.538;2022-07-06T04:52:11;4.90;;;2.00;;
15990;SDS011;8100;50.994;4.538;2022-07-06T04:54:59;6.03;;;2.28;;
15990;SDS011;8100;50.994;4.538;2022-07-06T04:57:47;2.95;;;1.73;;
15990;SDS011;8100;50.994;4.538;2022-07-06T05:00:35;6.30;;;1.90;;
15990;SDS011;8100;50.994;4.538;2022-07-06T05:03:23;3.28;;;1.90;;
15990;SDS011;8100;50.994;4.538;2022-07-06T05:06:10;2.40;;;1.70;;
15990;SDS011;8100;50.994;4.538;2022-07-06T05:08:57;3.00;;;1.70;;
15990;SDS011;8100;50.994;4.538;2022-07-06T05:11:45;2.55;;;1.83;;
15990;SDS011;8100;50.994;4.538;2022-07-06T05:14:32;3.97;;;2.00;;
15990;SDS011;8100;50.994;4.538;2022-07-06T05:17:20;2.83;;;1.85;;
15990;SDS011;8100;50.994;4.538;2022-07-06T05:20:08;2.45;;;1.70;;
15990;SDS011;8100;50.994;4.538;2022-07-06T05:22:55;2.55;;;1.80;;
15990;SDS011;8100;50.994;4.538;2022-07-06T05:25:42;4.88;;;1.75;;
15990;SDS011;8100;50.994;4.538;2022-07-06T05:28:30;3.15;;;1.92;;
15990;SDS011;8100;50.994;4.538;2022-07-06T05:31:17;4.15;;;2.03;;
15990;SDS011;8100;50.994;4.538;2022-07-06T05:34:05;3.08;;;1.92;;
15990;SDS011;8100;50.994;4.538;2022-07-06T05:36:53;3.20;;;1.80;;
15990;SDS011;8100;50.994;4.538;2022-07-06T05:39:40;3.58;;;1.88;;
15990;SDS011;8100;50.994;4.538;2022-07-06T05:42:30;3.85;;;1.95;;
15990;SDS011;8100;50.994;4.538;2022-07-06T05:45:17;3.67;;;2.15;;
15990;SDS011;8100;50.994;4.538;2022-07-06T05:48:05;4.50;;;2.67;;
15990;SDS011;8100;50.994;4.538;2022-07-06T05:51:11;5.65;;;2.67;;
15990;SDS011;8100;50.994;4.538;2022-07-06T05:53:58;3.90;;;2.28;;
15990;SDS011;8100;50.994;4.538;2022-07-06T05:56:45;3.50;;;1.83;;
15990;SDS011;8100;50.994;4.538;2022-07-06T05:59:32;3.60;;;2.30;;
15990;SDS011;8100;50.994;4.538;2022-07-06T06:02:19;4.55;;;1.75;;
15990;SDS011;8100;50.994;4.538;2022-07-06T06:05:07;3.58;;;2.13;;
15990;SDS011;8100;50.994;4.538;2022-07-06T06:07:57;4.05;;;2.35;;
15990;SDS011;8100;50.994;4.538;2022-07-06T06:10:44;4.72;;;2.33;;
15990;SDS011;8100;50.994;4.538;2022-07-06T06:13:31;4.95;;;2.30;;
15990;SDS011;8100;50.994;4.538;2022-07-06T06:16:18;2.60;;;1.80;;
15990;SDS011;8100;50.994;4.538;2022-07-06T06:19:06;3.20;;;2.03;;
15990;SDS011;8100;50.994;4.538;2022-07-06T06:21:53;3.20;;;1.98;;
15990;SDS011;8100;50.994;4.538;2022-07-06T06:24:41;3.67;;;1.90;;
15990;SDS011;8100;50.994;4.538;2022-07-06T06:27:28;3.15;;;1.90;;
15990;SDS011;8100;50.994;4.538;2022-07-06T06:30:16;2.97;;;1.63;;
15990;SDS011;8100;50.994;4.538;2022-07-06T06:33:06;4.65;;;1.80;;
15990;SDS011;8100;50.994;4.538;2022-07-06T06:35:55;2.33;;;1.40;;
15990;SDS011;8100;50.994;4.538;2022-07-06T06:38:42;2.00;;;1.45;;
15990;SDS011;8100;50.994;4.538;2022-07-06T06:41:31;3.17;;;1.50;;
15990;SDS011;8100;50.994;4.538;2022-07-06T06:44:18;3.00;;;1.55;;
15990;SDS011;8100;50.994;4.538;2022-07-06T06:47:08;2.15;;;1.50;;
15990;SDS011;8100;50.994;4.538;2022-07-06T06:49:55;1.77;;;1.50;;
15990;SDS011;8100;50.994;4.538;2022-07-06T06:52:42;2.10;;;1.38;;
15990;SDS011;8100;50.994;4.538;2022-07-06T06:55:29;1.98;;;1.27;;
15990;SDS011;8100;50.994;4.538;2022-07-06T06:58:18;2.95;;;1.23;;
15990;SDS011;8100;50.994;4.538;2022-07-06T07:01:05;1.38;;;1.00;;
15990;SDS011;8100;50.994;4.538;2022-07-06T07:03:53;2.85;;;1.02;;
15990;SDS011;8100;50.994;4.538;2022-07-06T07:06:40;1.45;;;0.95;;
15990;SDS011;8100;50.994;4.538;2022-07-06T07:09:27;1.30;;;0.70;;
15990;SDS011;8100;50.994;4.538;2022-07-06T07:12:15;2.17;;;1.13;;
15990;SDS011;8100;50.994;4.538;2022-07-06T07:15:04;0.98;;;0.80;;
15990;SDS011;8100;50.994;4.538;2022-07-06T07:17:52;3.30;;;0.82;;
15990;SDS011;8100;50.994;4.538;2022-07-06T07:20:39;1.83;;;0.90;;
15990;SDS011;8100;50.994;4.538;2022-07-06T07:23:26;2.80;;;0.63;;
15990;SDS011;8100;50.994;4.538;2022-07-06T07:26:13;1.80;;;0.82;;
15990;SDS011;8100;50.994;4.538;2022-07-06T07:29:00;0.98;;;0.60;;
15990;SDS011;8100;50.994;4.538;2022-07-06T07:31:49;0.75;;;0.68;;
15990;SDS011;8100;50.994;4.538;2022-07-06T07:34:36;1.00;;;0.70;;
15990;SDS011;8100;50.994;4.538;2022-07-06T07:37:23;1.15;;;0.88;;
15990;SDS011;8100;50.994;4.538;2022-07-06T07:40:11;2.60;;;0.90;;
15990;SDS011;8100;50.994;4.538;2022-07-06T07:42:58;1.63;;;0.70;;
15990;SDS011;8100;50.994;4.538;2022-07-06T07:45:45;1.63;;;0.90;;
15990;SDS011;8100;50.994;4.538;2022-07-06T07:48:35;1.58;;;1.00;;
15990;SDS011;8100;50.994;4.538;2022-07-06T07:51:22;1.00;;;0.70;;
15990;SDS011;8100;50.994;4.538;2022-07-06T07:54:09;1.17;;;0.88;;
15990;SDS011;8100;50.994;4.538;2022-07-06T07:56:56;1.77;;;0.63;;
15990;SDS011;8100;50.994;4.538;2022-07-06T07:59:43;2.30;;;0.77;;
15990;SDS011;8100;50.994;4.538;2022-07-06T08:02:30;0.68;;;0.63;;
15990;SDS011;8100;50.994;4.538;2022-07-06T08:05:19;3.50;;;0.80;;
15990;SDS011;8100;50.994;4.538;2022-07-06T08:08:06;0.63;;;0.60;;
15990;SDS011;8100;50.994;4.538;2022-07-06T08:10:53;2.88;;;0.95;;
15990;SDS011;8100;50.994;4.538;2022-07-06T08:13:41;2.00;;;0.80;;
15990;SDS011;8100;50.994;4.538;2022-07-06T08:16:28;2.75;;;0.60;;
15990;SDS011;8100;50.994;4.538;2022-07-06T08:19:15;0.88;;;0.75;;
15990;SDS011;8100;50.994;4.538;2022-07-06T08:22:04;0.50;;;0.40;;
15990;SDS011;8100;50.994;4.538;2022-07-06T08:24:52;1.45;;;0.70;;
15990;SDS011;8100;50.994;4.538;2022-07-06T08:27:39;0.70;;;0.60;;
15990;SDS011;8100;50.994;4.538;2022-07-06T08:30:27;1.02;;;0.60;;
15990;SDS011;8100;50.994;4.538;2022-07-06T08:33:16;1.90;;;0.70;;
15990;SDS011;8100;50.994;4.538;2022-07-06T08:36:04;1.27;;;0.75;;
15990;SDS011;8100;50.994;4.538;2022-07-06T08:38:53;1.90;;;0.50;;
15990;SDS011;8100;50.994;4.538;2022-07-06T08:41:40;2.50;;;0.90;;
15990;SDS011;8100;50.994;4.538;2022-07-06T08:44:30;1.40;;;0.75;;
15990;SDS011;8100;50.994;4.538;2022-07-06T08:47:17;2.78;;;0.73;;
15990;SDS011;8100;50.994;4.538;2022-07-06T08:50:07;1.85;;;0.75;;
15990;SDS011;8100;50.994;4.538;2022-07-06T08:52:55;1.13;;;0.73;;
15990;SDS011;8100;50.994;4.538;2022-07-06T08:55:44;0.50;;;0.50;;
15990;SDS011;8100;50.994;4.538;2022-07-06T08:58:31;1.30;;;0.60;;
15990;SDS011;8100;50.994;4.538;2022-07-06T09:01:18;0.82;;;0.70;;
15990;SDS011;8100;50.994;4.538;2022-07-06T09:04:06;0.88;;;0.60;;
15990;SDS011;8100;50.994;4.538;2022-07-06T09:06:55;1.60;;;0.60;;
15990;SDS011;8100;50.994;4.538;2022-07-06T09:09:43;1.95;;;0.70;;
15990;SDS011;8100;50.994;4.538;2022-07-06T09:12:32;0.82;;;0.73;;
15990;SDS011;8100;50.994;4.538;2022-07-06T09:15:23;2.70;;;0.85;;
15990;SDS011;8100;50.994;4.538;2022-07-06T09:18:14;0.57;;;0.57;;
15990;SDS011;8100;50.994;4.538;2022-07-06T09:21:01;2.03;;;0.93;;
15990;SDS011;8100;50.994;4.538;2022-07-06T09:23:52;4.05;;;0.75;;
15990;SDS011;8100;50.994;4.538;2022-07-06T09:26:40;0.70;;;0.50;;
15990;SDS011;8100;50.994;4.538;2022-07-06T09:29:29;2.15;;;1.02;;
15990;SDS011;8100;50.994;4.538;2022-07-06T09:32:19;1.02;;;0.60;;
15990;SDS011;8100;50.994;4.538;2022-07-06T09:35:07;1.45;;;0.82;;
15990;SDS011;8100;50.994;4.538;2022-07-06T09:38:01;0.85;;;0.60;;
15990;SDS011;8100;50.994;4.538;2022-07-06T09:40:50;2.10;;;0.80;;
15990;SDS011;8100;50.994;4.538;2022-07-06T09:43:37;1.00;;;0.70;;
15990;SDS011;8100;50.994;4.538;2022-07-06T09:46:26;2.90;;;0.85;;
15990;SDS011;8100;50.994;4.538;2022-07-06T09:49:16;1.45;;;0.90;;
15990;SDS011;8100;50.994;4.538;2022-07-06T09:52:05;1.42;;;0.70;;
15990;SDS011;8100;50.994;4.538;2022-07-06T09:54:53;3.88;;;0.90;;
15990;SDS011;8100;50.994;4.538;2022-07-06T09:57:51;3.42;;;0.90;;
15990;SDS011;8100;50.994;4.538;2022-07-06T10:00:40;1.85;;;0.90;;
15990;SDS011;8100;50.994;4.538;2022-07-06T10:03:30;1.58;;;0.75;;
15990;SDS011;8100;50.994;4.538;2022-07-06T10:06:18;1.55;;;0.80;;
15990;SDS011;8100;50.994;4.538;2022-07-06T10:09:06;3.00;;;0.98;;
15990;SDS011;8100;50.994;4.538;2022-07-06T10:11:54;3.88;;;0.95;;
15990;SDS011;8100;50.994;4.538;2022-07-06T10:14:43;3.92;;;0.95;;
15990;SDS011;8100;50.994;4.538;2022-07-06T10:17:32;2.47;;;0.80;;
15990;SDS011;8100;50.994;4.538;2022-07-06T10:20:21;3.28;;;0.90;;
15990;SDS011;8100;50.994;4.538;2022-07-06T10:23:09;2.63;;;0.90;;
15990;SDS011;8100;50.994;4.538;2022-07-06T10:25:56;1.15;;;1.00;;
15990;SDS011;8100;50.994;4.538;2022-07-06T10:28:44;1.70;;;0.90;;
15990;SDS011;8100;50.994;4.538;2022-07-06T10:31:34;1.67;;;0.90;;
15990;SDS011;8100;50.994;4.538;2022-07-06T10:34:24;2.33;;;1.00;;
15990;SDS011;8100;50.994;4.538;2022-07-06T10:37:22;1.55;;;0.93;;
15990;SDS011;8100;50.994;4.538;2022-07-06T10:40:13;2.63;;;0.80;;
15990;SDS011;8100;50.994;4.538;2022-07-06T10:43:18;2.22;;;0.90;;
15990;SDS011;8100;50.994;4.538;2022-07-06T10:46:06;1.70;;;0.90;;
15990;SDS011;8100;50.994;4.538;2022-07-06T10:48:54;3.63;;;1.08;;
15990;SDS011;8100;50.994;4.538;2022-07-06T10:51:43;2.15;;;0.90;;
15990;SDS011;8100;50.994;4.538;2022-07-06T10:54:32;1.70;;;0.98;;
15990;SDS011;8100;50.994;4.538;2022-07-06T10:57:26;1.70;;;0.82;;
15990;SDS011;8100;50.994;4.538;2022-07-06T11:00:14;2.55;;;0.90;;
15990;SDS011;8100;50.994;4.538;2022-07-06T11:03:12;1.33;;;0.80;;
15990;SDS011;8100;50.994;4.538;2022-07-06T11:06:17;1.70;;;1.10;;
15990;SDS011;8100;50.994;4.538;2022-07-06T11:09:06;2.85;;;1.10;;
15990;SDS011;8100;50.994;4.538;2022-07-06T11:11:56;2.25;;;1.13;;
15990;SDS011;8100;50.994;4.538;2022-07-06T11:14:43;1.50;;;1.10;;
15990;SDS011;8100;50.994;4.538;2022-07-06T11:17:31;1.10;;;1.00;;
15990;SDS011;8100;50.994;4.538;2022-07-06T11:20:19;1.60;;;1.10;;
15990;SDS011;8100;50.994;4.538;2022-07-06T11:23:06;1.40;;;1.05;;
15990;SDS011;8100;50.994;4.538;2022-07-06T11:25:53;2.72;;;1.00;;
15990;SDS011;8100;50.994;4.538;2022-07-06T11:28:43;1.88;;;0.90;;
15990;SDS011;8100;50.994;4.538;2022-07-06T11:31:36;3.05;;;0.80;;
15990;SDS011;8100;50.994;4.538;2022-07-06T11:34:25;1.80;;;1.08;;
15990;SDS011;8100;50.994;4.538;2022-07-06T11:37:14;2.13;;;1.02;;
15990;SDS011;8100;50.994;4.538;2022-07-06T11:40:05;1.88;;;1.13;;
15990;SDS011;8100;50.994;4.538;2022-07-06T11:42:53;2.63;;;1.20;;
15990;SDS011;8100;50.994;4.538;2022-07-06T11:45:42;2.25;;;1.00;;
15990;SDS011;8100;50.994;4.538;2022-07-06T11:48:29;2.03;;;1.25;;
15990;SDS011;8100;50.994;4.538;2022-07-06T11:51:16;2.92;;;1.20;;
15990;SDS011;8100;50.994;4.538;2022-07-06T11:54:07;1.80;;;1.17;;
15990;SDS011;8100;50.994;4.538;2022-07-06T11:56:55;3.05;;;1.10;;
15990;SDS011;8100;50.994;4.538;2022-07-06T11:59:44;2.53;;;1.20;;
15990;SDS011;8100;50.994;4.538;2022-07-06T12:02:34;1.20;;;1.00;;
15990;SDS011;8100;50.994;4.538;2022-07-06T12:05:28;1.13;;;0.95;;
15990;SDS011;8100;50.994;4.538;2022-07-06T12:08:15;2.75;;;1.10;;
15990;SDS011;8100;50.994;4.538;2022-07-06T12:11:03;3.15;;;1.20;;
15990;SDS011;8100;50.994;4.538;2022-07-06T12:13:50;2.65;;;1.20;;
15990;SDS011;8100;50.994;4.538;2022-07-06T12:16:39;2.20;;;1.30;;
15990;SDS011;8100;50.994;4.538;2022-07-06T12:19:27;2.70;;;1.08;;
15990;SDS011;8100;50.994;4.538;2022-07-06T12:22:23;4.13;;;1.40;;
15990;SDS011;8100;50.994;4.538;2022-07-06T12:25:11;2.65;;;1.52;;
15990;SDS011;8100;50.994;4.538;2022-07-06T12:28:21;1.08;;;0.98;;
15990;SDS011;8100;50.994;4.538;2022-07-06T12:31:09;2.88;;;1.40;;
15990;SDS011;8100;50.994;4.538;2022-07-06T12:33:57;2.17;;;1.23;;
15990;SDS011;8100;50.994;4.538;2022-07-06T12:36:46;3.00;;;1.48;;
15990;SDS011;8100;50.994;4.538;2022-07-06T12:39:40;3.80;;;1.65;;
15990;SDS011;8100;50.994;4.538;2022-07-06T12:42:28;4.15;;;1.48;;
15990;SDS011;8100;50.994;4.538;2022-07-06T12:45:15;7.50;;;2.10;;
15990;SDS011;8100;50.994;4.538;2022-07-06T12:48:03;3.40;;;1.60;;
15990;SDS011;8100;50.994;4.538;2022-07-06T12:50:51;2.47;;;1.63;;
15990;SDS011;8100;50.994;4.538;2022-07-06T12:53:40;2.08;;;1.50;;
15990;SDS011;8100;50.994;4.538;2022-07-06T12:56:27;2.08;;;1.63;;
15990;SDS011;8100;50.994;4.538;2022-07-06T12:59:20;2.58;;;1.95;;
15990;SDS011;8100;50.994;4.538;2022-07-06T13:02:16;3.60;;;2.03;;
15990;SDS011;8100;50.994;4.538;2022-07-06T13:05:05;2.78;;;2.10;;
15990;SDS011;8100;50.994;4.538;2022-07-06T13:07:55;2.42;;;1.50;;
15990;SDS011;8100;50.994;4.538;2022-07-06T13:10:45;2.90;;;1.65;;
15990;SDS011;8100;50.994;4.538;2022-07-06T13:13:32;2.63;;;1.40;;
15990;SDS011;8100;50.994;4.538;2022-07-06T13:16:28;3.17;;;2.08;;
15990;SDS011;8100;50.994;4.538;2022-07-06T13:19:19;3.72;;;1.88;;
15990;SDS011;8100;50.994;4.538;2022-07-06T13:22:07;1.65;;;1.50;;
15990;SDS011;8100;50.994;4.538;2022-07-06T13:24:54;2.40;;;1.50;;
15990;SDS011;8100;50.994;4.538;2022-07-06T13:27:42;4.60;;;1.60;;
15990;SDS011;8100;50.994;4.538;2022-07-06T13:30:30;2.15;;;1.38;;
15990;SDS011;8100;50.994;4.538;2022-07-06T13:33:17;2.22;;;1.50;;
15990;SDS011;8100;50.994;4.538;2022-07-06T13:36:04;2.63;;;1.33;;
15990;SDS011;8100;50.994;4.538;2022-07-06T13:38:51;3.72;;;1.10;;
15990;SDS011;8100;50.994;4.538;2022-07-06T13:41:39;3.40;;;1.67;;
15990;SDS011;8100;50.994;4.538;2022-07-06T13:44:27;2.55;;;1.15;;
15990;SDS011;8100;50.994;4.538;2022-07-06T13:47:15;1.85;;;1.58;;
15990;SDS011;8100;50.994;4.538;2022-07-06T13:50:02;3.67;;;1.60;;
15990;SDS011;8100;50.994;4.538;2022-07-06T13:52:49;3.63;;;1.20;;
15990;SDS011;8100;50.994;4.538;2022-07-06T13:55:37;2.47;;;1.25;;
15990;SDS011;8100;50.994;4.538;2022-07-06T13:58:24;2.42;;;1.27;;
15990;SDS011;8100;50.994;4.538;2022-07-06T14:01:13;1.88;;;1.13;;
15990;SDS011;8100;50.994;4.538;2022-07-06T14:04:00;1.20;;;0.98;;
15990;SDS011;8100;50.994;4.538;2022-07-06T14:06:47;1.83;;;1.33;;
15990;SDS011;8100;50.994;4.538;2022-07-06T14:09:34;1.70;;;1.20;;
15990;SDS011;8100;50.994;4.538;2022-07-06T14:12:22;2.15;;;1.27;;
15990;SDS011;8100;50.994;4.538;2022-07-06T14:15:10;1.45;;;1.27;;
15990;SDS011;8100;50.994;4.538;2022-07-06T14:17:58;1.80;;;1.20;;
15990;SDS011;8100;50.994;4.538;2022-07-06T14:20:46;2.10;;;1.00;;
15990;SDS011;8100;50.994;4.538;2022-07-06T14:23:34;2.80;;;1.10;;
15990;SDS011;8100;50.994;4.538;2022-07-06T14:26:21;1.38;;;1.20;;
15990;SDS011;8100;50.994;4.538;2022-07-06T14:29:09;2.78;;;1.10;;
15990;SDS011;8100;50.994;4.538;2022-07-06T14:31:56;1.83;;;1.17;;
15990;SDS011;8100;50.994;4.538;2022-07-06T14:34:45;1.90;;;1.15;;
15990;SDS011;8100;50.994;4.538;2022-07-06T14:37:32;1.83;;;0.98;;
15990;SDS011;8100;50.994;4.538;2022-07-06T14:40:19;2.67;;;1.17;;
15990;SDS011;8100;50.994;4.538;2022-07-06T14:43:06;3.15;;;1.30;;
15990;SDS011;8100;50.994;4.538;2022-07-06T14:45:53;1.60;;;1.30;;
15990;SDS011;8100;50.994;4.538;2022-07-06T14:48:41;1.25;;;1.08;;
15990;SDS011;8100;50.994;4.538;2022-07-06T14:51:29;2.45;;;1.02;;
15990;SDS011;8100;50.994;4.538;2022-07-06T14:54:16;3.85;;;0.98;;
15990;SDS011;8100;50.994;4.538;2022-07-06T14:57:04;2.25;;;1.00;;
15990;SDS011;8100;50.994;4.538;2022-07-06T14:59:53;1.75;;;1.00;;
15990;SDS011;8100;50.994;4.538;2022-07-06T15:02:40;1.27;;;1.13;;
15990;SDS011;8100;50.994;4.538;2022-07-06T15:05:28;1.10;;;0.90;;
15990;SDS011;8100;50.994;4.538;2022-07-06T15:08:16;1.90;;;0.95;;
15990;SDS011;8100;50.994;4.538;2022-07-06T15:11:04;1.25;;;1.10;;
15990;SDS011;8100;50.994;4.538;2022-07-06T15:13:51;1.20;;;1.00;;
15990;SDS011;8100;50.994;4.538;2022-07-06T15:16:38;4.47;;;1.40;;
15990;SDS011;8100;50.994;4.538;2022-07-06T15:19:25;3.40;;;0.90;;
15990;SDS011;8100;50.994;4.538;2022-07-06T15:22:12;3.42;;;1.00;;
15990;SDS011;8100;50.994;4.538;2022-07-06T15:25:01;3.03;;;0.93;;
15990;SDS011;8100;50.994;4.538;2022-07-06T15:27:49;2.72;;;1.08;;
15990;SDS011;8100;50.994;4.538;2022-07-06T15:30:36;2.78;;;1.60;;
15990;SDS011;8100;50.994;4.538;2022-07-06T15:33:23;2.60;;;0.95;;
15990;SDS011;8100;50.994;4.538;2022-07-06T15:36:10;1.77;;;1.10;;
15990;SDS011;8100;50.994;4.538;2022-07-06T15:38:58;1.10;;;0.80;;
15990;SDS011;8100;50.994;4.538;2022-07-06T15:41:46;1.52;;;1.00;;
15990;SDS011;8100;50.994;4.538;2022-07-06T15:44:33;3.60;;;1.13;;
15990;SDS011;8100;50.994;4.538;2022-07-06T15:47:21;1.25;;;0.90;;
15990;SDS011;8100;50.994;4.538;2022-07-06T15:50:09;1.70;;;1.00;;
15990;SDS011;8100;50.994;4.538;2022-07-06T15:52:56;1.50;;;1.13;;
15990;SDS011;8100;50.994;4.538;2022-07-06T15:55:44;1.95;;;1.10;;
15990;SDS011;8100;50.994;4.538;2022-07-06T15:58:32;1.73;;;0.95;;
15990;SDS011;8100;50.994;4.538;2022-07-06T16:01:20;1.77;;;0.93;;
15990;SDS011;8100;50.994;4.538;2022-07-06T16:04:07;2.65;;;1.13;;
15990;SDS011;8100;50.994;4.538;2022-07-06T16:06:56;1.70;;;1.30;;
15990;SDS011;8100;50.994;4.538;2022-07-06T16:09:43;2.40;;;1.20;;
15990;SDS011;8100;50.994;4.538;2022-07-06T16:12:30;1.65;;;1.20;;
15990;SDS011;8100;50.994;4.538;2022-07-06T16:15:19;2.40;;;1.42;;
15990;SDS011;8100;50.994;4.538;2022-07-06T16:18:06;2.55;;;1.30;;
15990;SDS011;8100;50.994;4.538;2022-07-06T16:20:53;1.90;;;1.10;;
15990;SDS011;8100;50.994;4.538;2022-07-06T16:23:40;1.60;;;1.20;;
15990;SDS011;8100;50.994;4.538;2022-07-06T16:26:28;2.00;;;1.20;;
15990;SDS011;8100;50.994;4.538;2022-07-06T16:29:15;2.20;;;1.40;;
15990;SDS011;8100;50.994;4.538;2022-07-06T16:32:04;1.70;;;1.40;;
15990;SDS011;8100;50.994;4.538;2022-07-06T16:34:52;3.70;;;1.45;;
15990;SDS011;8100;50.994;4.538;2022-07-06T16:37:39;2.97;;;2.20;;
15990;SDS011;8100;50.994;4.538;2022-07-06T16:40:26;3.45;;;1.80;;
15990;SDS011;8100;50.994;4.538;2022-07-06T16:43:13;5.68;;;2.35;;
15990;SDS011;8100;50.994;4.538;2022-07-06T16:46:01;2.30;;;2.00;;
15990;SDS011;8100;50.994;4.538;2022-07-06T16:48:50;2.55;;;1.83;;
15990;SDS011;8100;50.994;4.538;2022-07-06T16:51:37;3.45;;;2.40;;
15990;SDS011;8100;50.994;4.538;2022-07-06T16:54:24;3.22;;;2.08;;
15990;SDS011;8100;50.994;4.538;2022-07-06T16:57:12;3.28;;;2.10;;
15990;SDS011;8100;50.994;4.538;2022-07-06T16:59:59;3.63;;;2.28;;
15990;SDS011;8100;50.994;4.538;2022-07-06T17:02:46;3.38;;;2.13;;
15990;SDS011;8100;50.994;4.538;2022-07-06T17:05:35;2.78;;;2.17;;
15990;SDS011;8100;50.994;4.538;2022-07-06T17:08:23;4.35;;;2.10;;